createdAt,value
2022-10-16T00:01:51.590Z,13.08
2022-10-16T00:04:20.617Z,13.15
2022-10-16T00:06:49.620Z,13.10
2022-10-16T00:09:18.658Z,13.18
2022-10-16T00:11:47.666Z,13.18
2022-10-16T00:14:18.589Z,13.18
2022-10-16T00:16:47.565Z,13.17
2022-10-16T00:19:16.750Z,13.19
2022-10-16T00:21:45.713Z,13.18
2022-10-16T00:24:14.683Z,13.43
2022-10-16T00:26:44.249Z,13.27
2022-10-16T00:29:13.439Z,13.21
2022-10-16T00:31:43.723Z,13.26
2022-10-16T00:34:12.720Z,13.27
2022-10-16T00:36:41.683Z,13.34
2022-10-16T00:39:10.702Z,13.36
2022-10-16T00:41:39.649Z,13.33
2022-10-16T00:44:38.413Z,13.40
2022-10-16T00:47:11.574Z,13.49
2022-10-16T00:49:40.702Z,13.57
2022-10-16T00:52:09.828Z,13.59
2022-10-16T00:54:39.043Z,13.54
2022-10-16T00:57:09.041Z,13.75
2022-10-16T00:59:40.759Z,13.68
2022-10-16T01:02:14.089Z,13.66
2022-10-16T01:04:47.895Z,13.51
2022-10-16T01:07:26.698Z,13.52
2022-10-16T01:10:04.970Z,13.62
2022-10-16T01:12:45.486Z,13.50
2022-10-16T01:15:24.977Z,13.53
2022-10-16T01:18:01.892Z,13.49
2022-10-16T01:20:35.088Z,13.36
2022-10-16T01:23:29.554Z,13.46
2022-10-16T01:26:12.709Z,13.41
2022-10-16T01:28:50.091Z,13.51
2022-10-16T01:31:24.455Z,13.44
2022-10-16T01:33:58.769Z,13.39
2022-10-16T01:36:32.997Z,13.45
2022-10-16T01:39:04.737Z,13.45
2022-10-16T01:41:37.284Z,13.33
2022-10-16T01:44:11.674Z,13.25
2022-10-16T01:46:44.409Z,13.32
2022-10-16T01:49:14.830Z,13.25
2022-10-16T01:51:47.143Z,13.18
2022-10-16T01:54:18.456Z,13.16
2022-10-16T01:56:50.651Z,13.14
2022-10-16T01:59:24.843Z,13.11
2022-10-16T02:02:00.485Z,13.13
2022-10-16T02:04:33.297Z,13.06
2022-10-16T02:07:02.911Z,13.13
2022-10-16T02:09:34.203Z,13.02
2022-10-16T02:12:08.346Z,12.93
2022-10-16T02:14:40.187Z,13.12
2022-10-16T02:17:14.180Z,12.98
2022-10-16T02:19:44.830Z,12.92
2022-10-16T02:22:20.286Z,12.98
2022-10-16T02:24:55.877Z,13.05
2022-10-16T02:27:34.129Z,12.91
2022-10-16T02:30:09.600Z,12.80
2022-10-16T02:32:41.978Z,12.80
2022-10-16T02:35:12.155Z,12.85
2022-10-16T02:37:42.550Z,12.77
2022-10-16T02:40:12.414Z,12.89
2022-10-16T02:42:42.400Z,12.83
2022-10-16T02:45:13.947Z,12.77
2022-10-16T02:47:42.894Z,12.74
2022-10-16T02:50:12.254Z,12.77
2022-10-16T02:52:41.326Z,12.74
2022-10-16T02:55:10.551Z,12.81
2022-10-16T02:57:41.228Z,12.85
2022-10-16T03:00:14.367Z,12.73
2022-10-16T03:02:43.715Z,12.64
2022-10-16T03:05:13.174Z,12.60
2022-10-16T03:07:42.541Z,12.62
2022-10-16T03:10:11.570Z,12.62
2022-10-16T03:12:40.469Z,12.53
2022-10-16T03:15:10.719Z,12.45
2022-10-16T03:17:41.015Z,12.32
2022-10-16T03:20:10.730Z,12.37
2022-10-16T03:22:39.710Z,12.32
2022-10-16T03:25:09.509Z,12.17
2022-10-16T03:27:38.555Z,12.17
2022-10-16T03:30:08.573Z,12.22
2022-10-16T03:32:37.585Z,12.20
2022-10-16T03:35:08.895Z,12.15
2022-10-16T03:37:38.144Z,12.20
2022-10-16T03:40:08.315Z,12.31
2022-10-16T03:42:37.651Z,12.17
2022-10-16T03:45:07.624Z,12.14
2022-10-16T03:47:36.553Z,12.19
2022-10-16T03:50:08.483Z,12.24
2022-10-16T03:52:37.466Z,12.22
2022-10-16T03:55:07.267Z,12.24
2022-10-16T03:57:36.258Z,12.24
2022-10-16T04:00:05.838Z,12.34
2022-10-16T04:02:41.829Z,12.39
2022-10-16T04:05:12.409Z,12.40
2022-10-16T04:07:41.348Z,12.24
2022-10-16T04:10:11.071Z,12.42
2022-10-16T04:12:39.974Z,12.33
2022-10-16T04:15:09.880Z,12.28
2022-10-16T04:17:38.812Z,12.38
2022-10-16T04:20:08.729Z,12.58
2022-10-16T04:22:38.978Z,12.50
2022-10-16T04:25:08.588Z,12.39
2022-10-16T04:27:39.978Z,12.31
2022-10-16T04:30:11.949Z,12.47
2022-10-16T04:32:40.832Z,12.47
2022-10-16T04:35:10.909Z,12.41
2022-10-16T04:37:41.228Z,12.44
2022-10-16T04:40:10.742Z,12.43
2022-10-16T04:42:39.862Z,12.44
2022-10-16T04:45:12.093Z,12.65
2022-10-16T04:47:43.799Z,12.45
2022-10-16T04:50:12.731Z,12.34
2022-10-16T04:52:42.991Z,12.38
2022-10-16T04:55:11.917Z,12.57
2022-10-16T04:57:40.827Z,12.37
2022-10-16T05:00:11.184Z,12.55
2022-10-16T05:02:40.134Z,12.37
2022-10-16T05:05:09.691Z,12.25
2022-10-16T05:07:38.612Z,12.26
2022-10-16T05:10:09.413Z,12.40
2022-10-16T05:12:38.354Z,12.42
2022-10-16T05:15:08.498Z,12.38
2022-10-16T05:17:41.158Z,12.31
2022-10-16T05:20:13.502Z,12.29
2022-10-16T05:22:42.420Z,12.24
2022-10-16T05:25:13.072Z,12.20
2022-10-16T05:27:41.993Z,12.29
2022-10-16T05:30:12.526Z,12.20
2022-10-16T05:32:41.769Z,12.18
2022-10-16T05:35:12.679Z,12.15
2022-10-16T05:37:41.898Z,12.09
2022-10-16T05:40:13.859Z,12.19
2022-10-16T05:42:43.159Z,12.38
2022-10-16T05:45:13.451Z,12.38
2022-10-16T05:47:42.724Z,12.37
2022-10-16T05:50:11.651Z,12.39
2022-10-16T05:52:40.622Z,12.40
2022-10-16T05:55:10.462Z,12.34
2022-10-16T05:57:40.721Z,12.40
2022-10-16T06:00:11.023Z,12.37
2022-10-16T06:02:43.007Z,12.42
2022-10-16T06:05:11.990Z,12.45
2022-10-16T06:07:40.864Z,12.46
2022-10-16T06:10:10.787Z,12.58
2022-10-16T06:12:41.036Z,12.62
2022-10-16T06:15:10.655Z,12.71
2022-10-16T06:17:39.590Z,12.62
2022-10-16T06:20:09.193Z,12.61
2022-10-16T06:22:38.065Z,12.44
2022-10-16T06:25:07.766Z,12.35
2022-10-16T06:27:36.686Z,12.31
2022-10-16T06:30:08.457Z,12.19
2022-10-16T06:32:37.378Z,12.13
2022-10-16T06:35:06.779Z,12.08
2022-10-16T06:37:35.671Z,11.96
2022-10-16T06:40:05.285Z,11.89
2022-10-16T06:42:34.227Z,11.87
2022-10-16T06:45:03.162Z,11.88
2022-10-16T06:47:33.424Z,11.89
2022-10-16T06:50:02.485Z,11.90
2022-10-16T06:52:31.721Z,11.91
2022-10-16T06:55:00.744Z,11.96
2022-10-16T06:57:29.639Z,12.14
2022-10-16T06:59:58.566Z,12.26
2022-10-16T07:02:27.771Z,12.44
2022-10-16T07:04:58.788Z,12.65
2022-10-16T07:07:27.675Z,12.75
2022-10-16T07:09:56.770Z,12.86
2022-10-16T07:12:25.890Z,12.98
2022-10-16T07:14:55.714Z,13.18
2022-10-16T07:17:24.685Z,13.34
2022-10-16T07:19:54.321Z,13.46
2022-10-16T07:22:24.859Z,13.49
2022-10-16T07:24:53.929Z,13.62
2022-10-16T07:27:24.980Z,13.81
2022-10-16T07:29:53.971Z,13.89
2022-10-16T07:32:23.113Z,14.00
2022-10-16T07:34:52.242Z,14.06
2022-10-16T07:37:21.289Z,14.10
2022-10-16T07:39:51.554Z,14.14
2022-10-16T07:42:21.043Z,14.21
2022-10-16T07:44:49.936Z,14.23
2022-10-16T07:47:18.891Z,14.24
2022-10-16T07:49:47.778Z,14.31
2022-10-16T07:52:16.726Z,14.35
2022-10-16T07:54:45.701Z,14.58
2022-10-16T07:57:20.150Z,14.54
2022-10-16T07:59:49.159Z,14.54
2022-10-16T08:02:18.158Z,14.52
2022-10-16T08:04:49.290Z,14.55
2022-10-16T08:07:18.325Z,14.51
2022-10-16T08:09:50.630Z,14.55
2022-10-16T08:12:20.963Z,14.46
2022-10-16T08:14:49.936Z,14.47
2022-10-16T08:17:19.005Z,14.52
2022-10-16T08:19:48.360Z,14.54
2022-10-16T08:22:17.378Z,14.53
2022-10-16T08:24:46.395Z,14.66
2022-10-16T08:27:15.504Z,14.68
2022-10-16T08:29:45.808Z,14.75
2022-10-16T08:32:14.904Z,14.82
2022-10-16T08:34:43.842Z,14.71
2022-10-16T08:37:14.677Z,14.77
2022-10-16T08:39:43.620Z,14.79
2022-10-16T08:42:36.573Z,15.04
2022-10-16T08:45:22.870Z,15.41
2022-10-16T08:48:02.535Z,15.16
2022-10-16T08:50:34.815Z,15.41
2022-10-16T08:53:05.916Z,15.67
2022-10-16T08:55:40.479Z,15.49
2022-10-16T08:58:14.990Z,15.26
2022-10-16T09:00:48.666Z,15.80
2022-10-16T09:03:29.576Z,15.48
2022-10-16T09:06:28.747Z,16.01
2022-10-16T09:09:10.607Z,16.24
2022-10-16T09:11:51.049Z,15.75
2022-10-16T09:14:42.539Z,15.72
2022-10-16T09:17:45.189Z,15.60
2022-10-16T09:20:28.979Z,16.14
2022-10-16T09:23:12.469Z,16.76
2022-10-16T09:25:44.858Z,16.07
2022-10-16T09:28:13.982Z,16.65
2022-10-16T09:30:42.993Z,16.72
2022-10-16T09:33:15.028Z,16.21
2022-10-16T09:35:46.185Z,16.48
2022-10-16T09:38:25.187Z,16.87
2022-10-16T09:40:59.378Z,16.78
2022-10-16T09:43:41.103Z,16.58
2022-10-16T09:46:23.066Z,17.14
2022-10-16T09:48:55.639Z,16.72
2022-10-16T09:51:27.268Z,16.70
2022-10-16T09:54:02.540Z,16.54
2022-10-16T09:56:34.265Z,16.71
2022-10-16T09:59:05.332Z,16.76
2022-10-16T10:01:40.541Z,16.65
2022-10-16T10:04:12.197Z,17.21
2022-10-16T10:06:47.355Z,17.35
2022-10-16T10:09:23.194Z,17.08
2022-10-16T10:11:57.173Z,17.16
2022-10-16T10:14:30.016Z,17.71
2022-10-16T10:17:15.065Z,17.05
2022-10-16T10:19:52.544Z,17.12
2022-10-16T10:22:32.243Z,17.23
2022-10-16T10:25:26.566Z,17.26
2022-10-16T10:28:10.110Z,17.39
2022-10-16T10:30:44.817Z,18.19
2022-10-16T10:33:26.834Z,17.60
2022-10-16T10:36:09.598Z,17.99
2022-10-16T10:38:45.766Z,18.44
2022-10-16T10:41:43.147Z,18.58
2022-10-16T10:44:20.484Z,17.88
2022-10-16T10:46:56.932Z,18.44
2022-10-16T10:49:43.288Z,17.65
2022-10-16T10:52:37.540Z,17.19
2022-10-16T10:55:21.330Z,16.71
2022-10-16T10:58:07.861Z,16.70
2022-10-16T11:00:50.698Z,16.88
2022-10-16T11:03:42.883Z,17.70
2022-10-16T11:06:17.414Z,18.03
2022-10-16T11:08:53.767Z,17.75
2022-10-16T11:11:32.665Z,18.44
2022-10-16T11:14:06.561Z,18.18
2022-10-16T11:16:41.007Z,18.06
2022-10-16T11:19:20.746Z,18.40
2022-10-16T11:21:58.640Z,18.26
2022-10-16T11:24:42.945Z,18.52
2022-10-16T11:27:17.894Z,19.29
2022-10-16T11:29:55.449Z,18.52
2022-10-16T11:32:31.054Z,18.81
2022-10-16T11:35:10.068Z,19.60
2022-10-16T11:37:44.092Z,18.53
2022-10-16T11:40:24.548Z,17.55
2022-10-16T11:42:59.863Z,17.51
2022-10-16T11:45:36.302Z,17.50
2022-10-16T11:48:16.961Z,17.12
2022-10-16T11:50:52.244Z,18.31
2022-10-16T11:53:39.555Z,18.35
2022-10-16T11:56:10.129Z,18.22
2022-10-16T11:58:51.091Z,19.60
2022-10-16T12:01:26.266Z,19.29
2022-10-16T12:04:16.571Z,19.51
2022-10-16T12:06:49.566Z,19.48
2022-10-16T12:09:24.828Z,19.09
2022-10-16T12:11:55.632Z,19.45
2022-10-16T12:15:11.661Z,19.34
2022-10-16T12:17:37.212Z,18.83
2022-10-16T12:20:24.474Z,18.61
2022-10-16T12:22:56.529Z,18.88
2022-10-16T12:25:29.400Z,18.96
2022-10-16T12:28:04.990Z,19.47
2022-10-16T12:30:36.300Z,17.63
2022-10-16T12:33:07.848Z,19.56
2022-10-16T12:35:45.973Z,19.04
2022-10-16T12:38:20.387Z,18.02
2022-10-16T12:40:59.865Z,17.92
2022-10-16T12:43:39.141Z,18.69
2022-10-16T12:46:24.837Z,19.39
2022-10-16T12:49:08.699Z,19.24
2022-10-16T12:51:39.748Z,17.58
2022-10-16T12:54:16.481Z,18.80
2022-10-16T12:56:57.586Z,18.13
2022-10-16T12:59:40.235Z,17.86
2022-10-16T13:02:43.459Z,19.42
2022-10-16T13:05:26.415Z,18.84
2022-10-16T13:08:06.705Z,19.21
2022-10-16T13:10:42.222Z,19.31
2022-10-16T13:13:49.361Z,19.27
2022-10-16T13:16:26.833Z,18.39
2022-10-16T13:19:12.785Z,19.10
2022-10-16T13:21:49.731Z,18.61
2022-10-16T13:24:32.689Z,18.20
2022-10-16T13:27:11.005Z,17.25
2022-10-16T13:29:42.277Z,17.35
2022-10-16T13:32:17.899Z,16.99
2022-10-16T13:34:49.541Z,16.67
2022-10-16T13:37:22.439Z,16.92
2022-10-16T13:39:52.475Z,16.85
2022-10-16T13:42:30.628Z,16.71
2022-10-16T13:44:59.682Z,16.62
2022-10-16T13:47:31.796Z,16.58
2022-10-16T13:50:05.962Z,16.68
2022-10-16T13:52:36.192Z,16.75
2022-10-16T13:55:07.510Z,17.42
2022-10-16T13:57:37.651Z,17.77
2022-10-16T14:00:21.630Z,17.91
2022-10-16T14:02:59.069Z,18.07
2022-10-16T14:05:28.155Z,18.81
2022-10-16T14:07:58.605Z,18.93
2022-10-16T14:10:32.270Z,18.56
2022-10-16T14:13:03.510Z,18.50
2022-10-16T14:15:34.950Z,18.45
2022-10-16T14:18:07.422Z,19.14
2022-10-16T14:20:37.425Z,19.21
2022-10-16T14:23:22.155Z,18.00
2022-10-16T14:25:51.355Z,17.46
2022-10-16T14:28:22.738Z,17.50
2022-10-16T14:30:54.583Z,17.43
2022-10-16T14:33:27.192Z,17.08
2022-10-16T14:36:05.272Z,16.97
2022-10-16T14:38:35.535Z,16.96
2022-10-16T14:41:06.239Z,17.02
2022-10-16T14:43:38.547Z,17.10
2022-10-16T14:46:13.198Z,17.13
2022-10-16T14:48:45.916Z,17.07
2022-10-16T14:51:16.641Z,17.16
2022-10-16T14:53:45.567Z,17.02
2022-10-16T14:56:21.571Z,16.94
2022-10-16T14:58:51.857Z,16.97
2022-10-16T15:01:21.283Z,16.93
2022-10-16T15:03:53.332Z,16.90
2022-10-16T15:06:22.438Z,16.82
2022-10-16T15:08:51.407Z,16.82
2022-10-16T15:11:21.564Z,16.67
2022-10-16T15:13:50.679Z,16.58
2022-10-16T15:16:19.879Z,16.41
2022-10-16T15:18:48.846Z,16.32
2022-10-16T15:21:26.340Z,16.24
2022-10-16T15:23:55.497Z,16.13
2022-10-16T15:26:24.499Z,16.09
2022-10-16T15:28:53.798Z,16.10
2022-10-16T15:31:23.331Z,16.06
2022-10-16T15:33:54.572Z,15.98
2022-10-16T15:36:34.718Z,15.93
2022-10-16T15:39:03.933Z,15.89
2022-10-16T15:41:32.951Z,15.67
2022-10-16T15:44:01.976Z,15.64
2022-10-16T15:46:31.910Z,15.71
2022-10-16T15:49:01.287Z,15.47
2022-10-16T15:51:33.839Z,15.42
2022-10-16T15:54:03.217Z,15.33
2022-10-16T15:56:34.167Z,15.22
2022-10-16T15:59:03.714Z,15.14
2022-10-16T16:01:35.247Z,15.00
2022-10-16T16:04:10.936Z,14.98
2022-10-16T16:06:46.669Z,14.95
2022-10-16T16:09:15.944Z,14.72
2022-10-16T16:11:44.883Z,14.49
2022-10-16T16:14:15.818Z,14.32
2022-10-16T16:16:44.980Z,14.24
2022-10-16T16:19:13.892Z,14.11
2022-10-16T16:21:42.826Z,14.12
2022-10-16T16:24:13.667Z,13.97
2022-10-16T16:26:44.632Z,14.01
2022-10-16T16:29:16.154Z,13.88
2022-10-16T16:31:45.347Z,13.75
2022-10-16T16:34:14.356Z,13.59
2022-10-16T16:36:43.331Z,13.57
2022-10-16T16:39:13.610Z,13.46
2022-10-16T16:41:42.525Z,13.33
2022-10-16T16:44:12.441Z,13.25
2022-10-16T16:46:43.734Z,13.17
2022-10-16T16:49:14.029Z,13.10
2022-10-16T16:51:43.690Z,13.15
2022-10-16T16:54:14.919Z,13.03
2022-10-16T16:56:45.228Z,12.90
2022-10-16T16:59:16.475Z,12.73
2022-10-16T17:01:45.556Z,12.70
2022-10-16T17:04:16.040Z,12.78
2022-10-16T17:06:45.098Z,12.79
2022-10-16T17:09:16.269Z,12.74
2022-10-16T17:11:46.645Z,12.68
2022-10-16T17:14:16.210Z,12.57
2022-10-16T17:16:46.130Z,12.48
2022-10-16T17:19:17.692Z,12.39
2022-10-16T17:21:46.836Z,12.24
2022-10-16T17:24:18.461Z,12.17
2022-10-16T17:26:49.135Z,12.22
2022-10-16T17:29:19.267Z,12.20
2022-10-16T17:31:50.324Z,12.12
2022-10-16T17:34:19.778Z,12.05
2022-10-16T17:36:48.759Z,12.01
2022-10-16T17:39:19.674Z,11.89
2022-10-16T17:41:49.150Z,11.73
2022-10-16T17:44:20.822Z,11.60
2022-10-16T17:46:51.803Z,11.45
2022-10-16T17:49:21.731Z,11.35
2022-10-16T17:51:52.987Z,11.32
2022-10-16T17:54:23.497Z,11.29
2022-10-16T17:56:52.457Z,11.26
2022-10-16T17:59:23.062Z,11.33
2022-10-16T18:01:52.579Z,11.18
2022-10-16T18:04:21.771Z,11.16
2022-10-16T18:06:50.768Z,11.19
2022-10-16T18:09:22.532Z,11.12
2022-10-16T18:11:59.537Z,10.99
2022-10-16T18:14:30.102Z,10.89
2022-10-16T18:17:00.311Z,10.93
2022-10-16T18:19:29.503Z,10.91
2022-10-16T18:21:59.063Z,10.90
2022-10-16T18:24:30.124Z,10.78
2022-10-16T18:26:59.183Z,10.75
2022-10-16T18:29:29.241Z,10.78
2022-10-16T18:31:58.441Z,10.70
2022-10-16T18:34:27.954Z,10.78
2022-10-16T18:36:57.547Z,10.70
2022-10-16T18:39:28.061Z,10.66
2022-10-16T18:41:59.855Z,10.56
2022-10-16T18:44:31.054Z,10.61
2022-10-16T18:47:00.229Z,10.57
2022-10-16T18:49:29.682Z,10.67
2022-10-16T18:52:00.633Z,10.63
2022-10-16T18:54:31.456Z,10.57
2022-10-16T18:57:00.694Z,10.57
2022-10-16T18:59:30.074Z,10.51
2022-10-16T19:01:59.095Z,10.39
2022-10-16T19:04:28.735Z,10.35
2022-10-16T19:06:57.941Z,10.34
2022-10-16T19:09:26.982Z,10.32
2022-10-16T19:11:59.528Z,10.29
2022-10-16T19:14:30.022Z,10.20
2022-10-16T19:16:59.336Z,10.19
2022-10-16T19:19:28.338Z,10.30
2022-10-16T19:22:11.365Z,10.24
2022-10-16T19:24:40.824Z,10.11
2022-10-16T19:27:11.848Z,10.05
2022-10-16T19:29:40.782Z,10.01
2022-10-16T19:32:10.054Z,9.89
2022-10-16T19:34:38.991Z,9.87
2022-10-16T19:37:10.458Z,9.93
2022-10-16T19:39:39.430Z,9.92
2022-10-16T19:42:09.673Z,9.85
2022-10-16T19:44:39.001Z,9.82
2022-10-16T19:47:07.953Z,9.98
2022-10-16T19:49:37.352Z,9.91
2022-10-16T19:52:06.449Z,9.82
2022-10-16T19:54:36.557Z,9.81
2022-10-16T19:57:05.956Z,9.78
2022-10-16T19:59:38.043Z,9.67
2022-10-16T20:02:10.525Z,9.56
2022-10-16T20:04:39.516Z,9.66
2022-10-16T20:07:08.438Z,9.61
2022-10-16T20:09:37.449Z,9.61
2022-10-16T20:12:06.817Z,9.69
2022-10-16T20:14:37.173Z,9.64
2022-10-16T20:17:06.308Z,9.56
2022-10-16T20:19:35.345Z,9.47
2022-10-16T20:22:04.654Z,9.44
2022-10-16T20:24:33.630Z,9.38
2022-10-16T20:27:02.724Z,9.32
2022-10-16T20:29:31.704Z,9.32
2022-10-16T20:32:02.081Z,9.44
2022-10-16T20:34:31.190Z,9.46
2022-10-16T20:37:00.234Z,9.42
2022-10-16T20:39:29.186Z,9.44
2022-10-16T20:42:00.883Z,9.48
2022-10-16T20:44:29.888Z,9.48
2022-10-16T20:46:58.795Z,9.51
2022-10-16T20:49:40.227Z,9.58
2022-10-16T20:52:09.886Z,9.64
2022-10-16T20:54:38.895Z,9.65
2022-10-16T20:57:07.947Z,9.63
2022-10-16T20:59:37.027Z,9.54
2022-10-16T21:02:11.977Z,9.44
2022-10-16T21:04:44.494Z,9.38
2022-10-16T21:07:13.456Z,9.36
2022-10-16T21:09:43.434Z,9.31
2022-10-16T21:12:12.589Z,9.37
2022-10-16T21:14:46.506Z,9.44
2022-10-16T21:17:25.502Z,9.46
2022-10-16T21:19:55.897Z,9.48
2022-10-16T21:22:25.104Z,9.42
2022-10-16T21:24:54.329Z,9.41
2022-10-16T21:27:23.297Z,9.53
2022-10-16T21:29:54.804Z,9.57
2022-10-16T21:32:23.804Z,9.58
2022-10-16T21:34:52.771Z,9.63
2022-10-16T21:37:23.048Z,9.74
2022-10-16T21:39:51.973Z,9.73
2022-10-16T21:42:20.941Z,9.70
2022-10-16T21:44:49.884Z,9.66
2022-10-16T21:47:19.120Z,9.58
2022-10-16T21:49:48.073Z,9.51
2022-10-16T21:52:17.136Z,9.50
2022-10-16T21:54:47.398Z,9.46
2022-10-16T21:57:16.345Z,9.45
2022-10-16T21:59:45.301Z,9.49
2022-10-16T22:02:14.236Z,9.57
2022-10-16T22:04:43.224Z,9.63
2022-10-16T22:07:12.158Z,9.65
2022-10-16T22:09:41.278Z,9.51
2022-10-16T22:12:11.629Z,9.51
2022-10-16T22:14:41.750Z,9.55
2022-10-16T22:17:10.765Z,9.52
2022-10-16T22:19:39.811Z,9.51
2022-10-16T22:22:08.896Z,9.50
2022-10-16T22:24:38.912Z,9.50
2022-10-16T22:27:07.876Z,9.45
2022-10-16T22:29:38.174Z,9.46
2022-10-16T22:32:07.199Z,9.58
2022-10-16T22:34:36.223Z,9.60
2022-10-16T22:37:05.180Z,9.66
2022-10-16T22:39:34.260Z,9.73
2022-10-16T22:42:03.795Z,9.70
2022-10-16T22:44:32.768Z,9.74
2022-10-16T22:47:03.118Z,9.74
2022-10-16T22:49:32.099Z,9.78
2022-10-16T22:52:02.690Z,9.75
2022-10-16T22:54:31.653Z,9.74
2022-10-16T22:57:00.590Z,9.77
2022-10-16T22:59:29.569Z,9.76
2022-10-16T23:01:58.534Z,9.82
2022-10-16T23:04:28.836Z,9.87
2022-10-16T23:06:59.065Z,9.91
2022-10-16T23:09:28.111Z,9.84
2022-10-16T23:11:57.043Z,9.87
2022-10-16T23:14:26.140Z,9.91
2022-10-16T23:16:55.071Z,9.93
2022-10-16T23:19:24.022Z,9.94
2022-10-16T23:21:54.292Z,9.93
2022-10-16T23:24:23.250Z,9.94
2022-10-16T23:26:52.187Z,9.95
2022-10-16T23:29:21.204Z,9.97
2022-10-16T23:31:50.149Z,10.02
2022-10-16T23:34:19.068Z,10.13
2022-10-16T23:36:48.460Z,10.09
2022-10-16T23:39:19.162Z,10.12
2022-10-16T23:41:48.188Z,10.12
2022-10-16T23:44:17.204Z,10.08
2022-10-16T23:46:46.160Z,10.04
2022-10-16T23:49:15.135Z,10.07
2022-10-16T23:51:44.041Z,10.05
2022-10-16T23:54:13.132Z,10.06
2022-10-16T23:56:43.476Z,10.05
2022-10-16T23:59:12.451Z,10.04
